CheckWX is a tool to help pilots better visualize weather data.  It is not intended as a substitute for an official pre-flight weather briefing.

08:28:54 UTC

KHKS TAF
Hawkins Field Airport
Jackson, Mississippi, USA
KHKS 070521Z 0706/0806 01007KT P6SM OVC015 FM070900 01007KT P6SM OVC008 FM071700 02006KT P6SM BKN015 OVC025

Dec-7@
06:00 UTC

Dec-7 @ 06:00 UTC

Dec-7@
09:00 UTC

Dec-7 @ 09:00 UTC

KHKS 070521Z 0706/0806 01007KT P6SM OVC015
Wind
  • 010° at 7 KTS
Cloud Levels
  • Overcast at 1,500' AGL

Dec-7@
09:00 UTC

Dec-7 @ 09:00 UTC

Dec-7@
17:00 UTC

Dec-7 @ 17:00 UTC

FM070900 01007KT P6SM OVC008

From

From Standard forecast or significant change

Wind
  • 010° at 7 KTS
Cloud Levels
  • Overcast at 800' AGL

Dec-7@
17:00 UTC

Dec-7 @ 17:00 UTC

Dec-8@
06:00 UTC

Dec-8 @ 06:00 UTC

FM071700 02006KT P6SM BKN015 OVC025

From

From Standard forecast or significant change

Wind
  • 020° at 6 KTS
Cloud Levels
  • Broken at 1,500' AGL
  • Overcast at 2,500' AGL